Terminal Aerodrome Forecast
Issued by NWS Tulsa, OK

Home | Current Version | Previous Version | Text Only | Print | Product List | Glossary On
Versions: 1 2 3 4 5 6 7 8 9 10 11 12 13 14
000
FTUS44 KTSA 292139 AAA
TAFFSM
TAF AMD
KFSM 292139Z 2922/3018 09010KT P6SM VCTS SCT050CB
      TEMPO 2922/2924 3SM -TSRA BKN040CB
     FM300100 07003KT P6SM SCT250
     FM301500 08004KT P6SM SCT050=

USA.gov is the U.S. government's official web portal to all federal, state and local government web resources and services.